sensor_id;sensor_type;location;lat;lon;timestamp;P1;durP1;ratioP1;P2;durP2;ratioP2
43861;SDS011;29510;52.140;5.034;2023-02-28T00:00:44;2.22;;;1.05;;
43861;SDS011;29510;52.140;5.034;2023-02-28T00:10:45;1.60;;;0.77;;
43861;SDS011;29510;52.140;5.034;2023-02-28T00:20:46;1.77;;;0.70;;
43861;SDS011;29510;52.140;5.034;2023-02-28T00:30:49;2.65;;;1.40;;
43861;SDS011;29510;52.140;5.034;2023-02-28T00:40:50;2.03;;;0.93;;
43861;SDS011;29510;52.140;5.034;2023-02-28T00:50:51;10.68;;;1.55;;
43861;SDS011;29510;52.140;5.034;2023-02-28T01:00:53;1.13;;;0.52;;
43861;SDS011;29510;52.140;5.034;2023-02-28T01:10:54;1.27;;;0.50;;
43861;SDS011;29510;52.140;5.034;2023-02-28T01:20:55;0.90;;;0.45;;
43861;SDS011;29510;52.140;5.034;2023-02-28T01:30:56;3.03;;;0.55;;
43861;SDS011;29510;52.140;5.034;2023-02-28T01:40:57;1.20;;;0.45;;
43861;SDS011;29510;52.140;5.034;2023-02-28T01:50:59;3.28;;;0.82;;
43861;SDS011;29510;52.140;5.034;2023-02-28T02:01:05;2.13;;;1.10;;
43861;SDS011;29510;52.140;5.034;2023-02-28T02:11:07;16.45;;;1.70;;
43861;SDS011;29510;52.140;5.034;2023-02-28T02:41:52;1.52;;;0.60;;
43861;SDS011;29510;52.140;5.034;2023-02-28T02:51:54;1.55;;;0.60;;
43861;SDS011;29510;52.140;5.034;2023-02-28T03:01:57;2.08;;;1.20;;
43861;SDS011;29510;52.140;5.034;2023-02-28T03:12:02;0.70;;;0.32;;
43861;SDS011;29510;52.140;5.034;2023-02-28T03:22:14;1.60;;;1.05;;
43861;SDS011;29510;52.140;5.034;2023-02-28T03:32:33;1.50;;;0.73;;
43861;SDS011;29510;52.140;5.034;2023-02-28T03:42:44;2.13;;;0.90;;
43861;SDS011;29510;52.140;5.034;2023-02-28T03:52:58;2.55;;;0.93;;
43861;SDS011;29510;52.140;5.034;2023-02-28T04:03:05;1.98;;;0.98;;
43861;SDS011;29510;52.140;5.034;2023-02-28T04:13:06;5.60;;;2.40;;
43861;SDS011;29510;52.140;5.034;2023-02-28T04:23:07;2.55;;;1.17;;
43861;SDS011;29510;52.140;5.034;2023-02-28T04:33:08;4.65;;;1.13;;
43861;SDS011;29510;52.140;5.034;2023-02-28T04:43:09;2.70;;;1.67;;
43861;SDS011;29510;52.140;5.034;2023-02-28T04:53:10;3.92;;;1.75;;
43861;SDS011;29510;52.140;5.034;2023-02-28T05:03:11;3.30;;;1.42;;
43861;SDS011;29510;52.140;5.034;2023-02-28T05:13:12;4.55;;;1.95;;
43861;SDS011;29510;52.140;5.034;2023-02-28T05:23:14;4.10;;;1.33;;
43861;SDS011;29510;52.140;5.034;2023-02-28T05:33:16;2.10;;;0.98;;
43861;SDS011;29510;52.140;5.034;2023-02-28T05:43:17;1.75;;;0.80;;
43861;SDS011;29510;52.140;5.034;2023-02-28T05:53:18;3.42;;;1.00;;
43861;SDS011;29510;52.140;5.034;2023-02-28T06:03:19;2.33;;;0.95;;
43861;SDS011;29510;52.140;5.034;2023-02-28T06:13:20;3.15;;;1.73;;
43861;SDS011;29510;52.140;5.034;2023-02-28T06:23:22;2.80;;;1.40;;
43861;SDS011;29510;52.140;5.034;2023-02-28T06:33:23;3.08;;;1.65;;
43861;SDS011;29510;52.140;5.034;2023-02-28T06:43:24;3.42;;;1.10;;
43861;SDS011;29510;52.140;5.034;2023-02-28T06:53:28;4.20;;;2.25;;
43861;SDS011;29510;52.140;5.034;2023-02-28T07:03:29;1.75;;;0.90;;
43861;SDS011;29510;52.140;5.034;2023-02-28T07:13:31;3.65;;;1.25;;
43861;SDS011;29510;52.140;5.034;2023-02-28T07:23:32;2.55;;;1.40;;
43861;SDS011;29510;52.140;5.034;2023-02-28T07:33:34;3.03;;;1.42;;
43861;SDS011;29510;52.140;5.034;2023-02-28T07:43:35;2.92;;;1.27;;
43861;SDS011;29510;52.140;5.034;2023-02-28T07:53:36;5.35;;;2.35;;
43861;SDS011;29510;52.140;5.034;2023-02-28T08:03:38;2.97;;;1.67;;
43861;SDS011;29510;52.140;5.034;2023-02-28T08:13:40;2.92;;;1.67;;
43861;SDS011;29510;52.140;5.034;2023-02-28T08:23:45;2.38;;;1.38;;
43861;SDS011;29510;52.140;5.034;2023-02-28T08:33:50;2.17;;;1.20;;
43861;SDS011;29510;52.140;5.034;2023-02-28T08:43:53;4.10;;;1.98;;
43861;SDS011;29510;52.140;5.034;2023-02-28T08:53:55;2.33;;;1.15;;
43861;SDS011;29510;52.140;5.034;2023-02-28T09:03:58;3.38;;;1.50;;
43861;SDS011;29510;52.140;5.034;2023-02-28T09:13:59;4.70;;;1.60;;
43861;SDS011;29510;52.140;5.034;2023-02-28T09:24:01;2.50;;;1.20;;
43861;SDS011;29510;52.140;5.034;2023-02-28T09:34:03;3.67;;;1.73;;
43861;SDS011;29510;52.140;5.034;2023-02-28T09:44:04;3.50;;;1.80;;
43861;SDS011;29510;52.140;5.034;2023-02-28T09:54:13;12.57;;;2.25;;
43861;SDS011;29510;52.140;5.034;2023-02-28T10:14:26;2.03;;;1.00;;
43861;SDS011;29510;52.140;5.034;2023-02-28T10:24:32;12.90;;;2.03;;
43861;SDS011;29510;52.140;5.034;2023-02-28T10:34:39;2.05;;;0.85;;
43861;SDS011;29510;52.140;5.034;2023-02-28T10:44:40;2.63;;;1.17;;
43861;SDS011;29510;52.140;5.034;2023-02-28T10:54:41;1.40;;;0.63;;
43861;SDS011;29510;52.140;5.034;2023-02-28T11:04:42;0.75;;;0.43;;
43861;SDS011;29510;52.140;5.034;2023-02-28T11:14:47;1.10;;;0.50;;
43861;SDS011;29510;52.140;5.034;2023-02-28T11:25:01;1.15;;;0.50;;
43861;SDS011;29510;52.140;5.034;2023-02-28T11:45:59;1.48;;;0.88;;
43861;SDS011;29510;52.140;5.034;2023-02-28T11:55:52;2.15;;;0.65;;
43861;SDS011;29510;52.140;5.034;2023-02-28T12:06:05;0.82;;;0.40;;
43861;SDS011;29510;52.140;5.034;2023-02-28T12:26:39;2.53;;;0.43;;
43861;SDS011;29510;52.140;5.034;2023-02-28T12:36:43;5.20;;;1.27;;
43861;SDS011;29510;52.140;5.034;2023-02-28T12:46:47;1.75;;;0.95;;
43861;SDS011;29510;52.140;5.034;2023-02-28T12:56:56;0.93;;;0.57;;
43861;SDS011;29510;52.140;5.034;2023-02-28T13:17:39;1.25;;;0.50;;
43861;SDS011;29510;52.140;5.034;2023-02-28T13:27:42;1.25;;;0.68;;
43861;SDS011;29510;52.140;5.034;2023-02-28T13:37:44;7.32;;;1.10;;
43861;SDS011;29510;52.140;5.034;2023-02-28T13:47:54;0.60;;;0.22;;
43861;SDS011;29510;52.140;5.034;2023-02-28T13:58:08;0.77;;;0.35;;
43861;SDS011;29510;52.140;5.034;2023-02-28T14:08:30;1.33;;;0.50;;
43861;SDS011;29510;52.140;5.034;2023-02-28T14:18:37;0.82;;;0.28;;
43861;SDS011;29510;52.140;5.034;2023-02-28T14:39:16;0.77;;;0.30;;
43861;SDS011;29510;52.140;5.034;2023-02-28T14:49:29;2.33;;;1.00;;
43861;SDS011;29510;52.140;5.034;2023-02-28T14:59:36;1.17;;;0.60;;
43861;SDS011;29510;52.140;5.034;2023-02-28T15:09:37;1.02;;;0.55;;
43861;SDS011;29510;52.140;5.034;2023-02-28T15:19:39;1.25;;;0.70;;
43861;SDS011;29510;52.140;5.034;2023-02-28T15:29:44;2.08;;;1.23;;
43861;SDS011;29510;52.140;5.034;2023-02-28T15:39:49;0.90;;;0.50;;
43861;SDS011;29510;52.140;5.034;2023-02-28T15:49:55;2.13;;;1.08;;
43861;SDS011;29510;52.140;5.034;2023-02-28T16:00:02;2.05;;;0.70;;
43861;SDS011;29510;52.140;5.034;2023-02-28T16:10:06;2.47;;;0.67;;
43861;SDS011;29510;52.140;5.034;2023-02-28T16:20:17;2.08;;;0.90;;
43861;SDS011;29510;52.140;5.034;2023-02-28T16:30:24;3.03;;;0.90;;
43861;SDS011;29510;52.140;5.034;2023-02-28T16:40:26;2.42;;;1.38;;
43861;SDS011;29510;52.140;5.034;2023-02-28T16:50:31;1.85;;;0.85;;
43861;SDS011;29510;52.140;5.034;2023-02-28T17:00:34;1.52;;;0.75;;
43861;SDS011;29510;52.140;5.034;2023-02-28T17:10:35;4.93;;;2.70;;
43861;SDS011;29510;52.140;5.034;2023-02-28T17:20:37;2.88;;;1.45;;
43861;SDS011;29510;52.140;5.034;2023-02-28T17:30:38;1.90;;;0.90;;
43861;SDS011;29510;52.140;5.034;2023-02-28T17:40:41;3.42;;;1.77;;
43861;SDS011;29510;52.140;5.034;2023-02-28T17:50:42;3.08;;;2.15;;
43861;SDS011;29510;52.140;5.034;2023-02-28T18:00:43;3.08;;;1.23;;
43861;SDS011;29510;52.140;5.034;2023-02-28T18:10:44;2.15;;;1.13;;
43861;SDS011;29510;52.140;5.034;2023-02-28T18:20:45;2.08;;;1.15;;
43861;SDS011;29510;52.140;5.034;2023-02-28T18:30:50;4.57;;;1.88;;
43861;SDS011;29510;52.140;5.034;2023-02-28T18:40:52;3.33;;;1.83;;
43861;SDS011;29510;52.140;5.034;2023-02-28T18:50:55;3.22;;;1.58;;
43861;SDS011;29510;52.140;5.034;2023-02-28T19:00:56;9.93;;;3.88;;
43861;SDS011;29510;52.140;5.034;2023-02-28T19:10:57;7.32;;;3.45;;
43861;SDS011;29510;52.140;5.034;2023-02-28T19:20:59;7.82;;;3.55;;
43861;SDS011;29510;52.140;5.034;2023-02-28T19:31:00;10.68;;;4.85;;
43861;SDS011;29510;52.140;5.034;2023-02-28T19:41:02;11.70;;;4.90;;
43861;SDS011;29510;52.140;5.034;2023-02-28T19:51:06;8.50;;;3.38;;
43861;SDS011;29510;52.140;5.034;2023-02-28T20:01:12;4.83;;;1.70;;
43861;SDS011;29510;52.140;5.034;2023-02-28T20:11:16;7.28;;;3.53;;
43861;SDS011;29510;52.140;5.034;2023-02-28T20:21:17;5.43;;;2.88;;
43861;SDS011;29510;52.140;5.034;2023-02-28T20:31:20;5.22;;;2.38;;
43861;SDS011;29510;52.140;5.034;2023-02-28T20:41:22;3.40;;;2.42;;
43861;SDS011;29510;52.140;5.034;2023-02-28T20:51:24;4.60;;;2.35;;
43861;SDS011;29510;52.140;5.034;2023-02-28T21:01:26;3.70;;;1.90;;
43861;SDS011;29510;52.140;5.034;2023-02-28T21:11:29;5.90;;;3.20;;
43861;SDS011;29510;52.140;5.034;2023-02-28T21:21:36;8.60;;;2.70;;
43861;SDS011;29510;52.140;5.034;2023-02-28T21:31:44;6.13;;;2.72;;
43861;SDS011;29510;52.140;5.034;2023-02-28T21:41:45;5.70;;;3.58;;
43861;SDS011;29510;52.140;5.034;2023-02-28T21:51:47;5.38;;;3.13;;
43861;SDS011;29510;52.140;5.034;2023-02-28T22:01:48;8.07;;;3.70;;
43861;SDS011;29510;52.140;5.034;2023-02-28T22:11:55;4.47;;;3.50;;
43861;SDS011;29510;52.140;5.034;2023-02-28T22:21:57;4.57;;;2.60;;
43861;SDS011;29510;52.140;5.034;2023-02-28T22:31:59;5.22;;;2.92;;
43861;SDS011;29510;52.140;5.034;2023-02-28T22:42:01;5.47;;;3.10;;
43861;SDS011;29510;52.140;5.034;2023-02-28T22:52:02;7.50;;;3.58;;
43861;SDS011;29510;52.140;5.034;2023-02-28T23:02:03;6.32;;;3.65;;
43861;SDS011;29510;52.140;5.034;2023-02-28T23:12:04;6.82;;;4.00;;
43861;SDS011;29510;52.140;5.034;2023-02-28T23:22:05;9.38;;;4.32;;
43861;SDS011;29510;52.140;5.034;2023-02-28T23:32:06;10.15;;;5.00;;
43861;SDS011;29510;52.140;5.034;2023-02-28T23:42:07;6.50;;;3.70;;
43861;SDS011;29510;52.140;5.034;2023-02-28T23:52:08;7.63;;;3.97;;
